Weather observations for the past three days for
Shalz Field Airport
Metric (Imperial)
Date Time (cdt) Wind (kph) Vis. (km) Weather Sky Cond. Temperature (ºC) Relative Humidity Wind Chill (°C) Heat Index (°C) Pressure Precipitation (cm)
Air Dwpt 6 hour altimeter (cm) sea level (mb) 1 hr 3 hr 6 hr
Max. Min.
31 10:55 W 7 16.09 Fair CLR 27.1 17.1 54% 28 76.38 0.0
31 10:35 W 7 16.09 Fair CLR 26.5 17.6 58% 27 76.38 0.0
31 10:15 W 9 16.09 Fair CLR 25.7 17.5 61% 27 76.38 0.0
31 09:55 W 11 16.09 Fair CLR 24.6 18.4 68% 26 76.38 0.0
31 09:35 W 13 16.09 Fair CLR 23.2 19.2 78% 76.38 0.0
31 09:15 W 13 16.09 Fair CLR 22.1 19.3 84% 76.38 0.0
31 08:55 W 11 16.09 Fair CLR 21.2 19.5 90% 76.35 0.0
31 08:35 W 6 16.09 Fair CLR 19.8 19.4 98% 76.35 0.0
31 08:15 W 11 16.09 Fair CLR 19.7 19.6 99% 76.35 0.0
31 07:55 W 9 16.09 Fair CLR 19 18 94% 76.35 0.0
31 07:35 W 9 16.09 Fair CLR 18 18 100% 76.33 0.0
31 07:15 NW 7 16.09 Fair CLR 18 0 0% 76.33 0.0
31 06:55 NW 11 16.09 Fair CLR 18 0 22.6 17.6 0% 76.33 0.0 0.86
31 06:35 W 7 16.09 Fair CLR 18 0 0% 76.3 0.0
31 06:15 NW 11 16.09 Fair CLR 18 18 100% 76.28 0.0
31 05:55 NW 11 16.09 Fair CLR 18.3 18.1 99% 76.28 0.0
31 05:35 Calm 16.09 Partly Cloudy SCT110 19.2 17.9 92% 76.23 0.0
31 05:15 SE 15 16.09 Partly Cloudy SCT070 SCT120 19.4 18.1 92% 76.17 0.0
31 04:55 E 30 16.09 Light Rain SCT120 19 18.8 99% 76.12 0.0 0.05
31 04:35 NE 9 16.09 Light Rain SCT085 SCT110 19.3 19.2 99% 76.3 0.0 0.03
31 04:15 S 9 16.09 Light Rain SCT100 SCT120 19.4 19.1 98% 76.35 0.0
31 03:55 S 7 16.09 Rain SCT100 BKN120 19.5 18.7 95% 76.33 0.0 0.08 0.81
31 03:35 SE 19 16.09 Light Rain BKN110 19.7 18.1 91% 76.28 0.0 0.03
31 03:15 SE 24 16.09 Light Rain OVC120 19.8 19.3 97% 76.35 0.0 0.03
31 02:55 SE 17 16.09 Light Rain OVC120 20.4 19.4 94% 76.33 0.0 0.03
31 02:35 S 22 G 39 16.09 Rain BKN120 21 18.5 86% 76.35 0.0 0.03
31 02:15 SE 19 16.09 Light Rain SCT085 BKN120 20.8 19.1 90% 76.3 0.0
31 01:55 E 15 16.09 Light Rain SCT049 SCT065 BKN110 21 18.5 86% 76.28 0.0 0.56
31 01:35 SE 17 16.09 Light Rain SCT033 SCT065 OVC100 20.6 18.6 88% 76.3 0.0 0.56
31 01:15 W 24 16.09 Heavy Rain SCT024 BKN045 OVC090 21.5 16.3 72% 76.33 0.0 0.51
31 00:55 W 17 G 35 6.44 Heavy Rain SCT018 SCT029 OVC100 21.6 16.1 32.4 21.2 71% 76.4 0.0 0.41 0.41
31 00:35 N 17 16.09 Mostly Cloudy BKN100 25 14.3 52% 26 76.28 0.0
31 00:15 N 6 16.09 Fair CLR 25.1 14.2 51% 26 76.23 0.0
30 23:55 NW 13 16.09 Partly Cloudy SCT095 25.3 14.2 50% 26 76.2 0.0
30 23:35 NW 15 16.09 Fair CLR 25.2 14.3 51% 26 76.23 0.0
30 23:15 NW 15 16.09 Fair CLR 25.2 14.2 51% 26 76.2 0.0
30 22:55 N 15 16.09 Fair CLR 26.3 13.7 46% 27 76.17 0.0
30 22:35 N 15 16.09 Fair CLR 27 14.4 46% 27 76.17 0.0
30 22:15 N 13 G 28 16.09 Fair CLR 26.7 14.6 47% 27 76.17 0.0
30 21:55 NE 7 16.09 Fair CLR 26.9 14.8 48% 27 76.15 0.0
30 21:35 E 7 16.09 Fair CLR 25.7 15.6 54% 26 76.12 0.0
30 21:15 E 9 16.09 Fair CLR 26 15.6 53% 27 76.1 0.0
30 20:55 E 9 16.09 Fair CLR 27 15.4 49% 27 76.1 0.0
30 20:35 E 9 16.09 Fair CLR 28 15 45% 28 76.1 0.0
30 20:15 NE 7 16.09 Fair CLR 28.4 15.2 45% 28 76.07 0.0
30 19:55 E 9 16.09 Fair CLR 29.5 15.3 42% 29 76.07 0.0
30 19:35 E 11 16.09 Fair CLR 31 14.8 37% 31 76.05 0.0
30 19:15 E 13 16.09 Fair CLR 32.3 14.7 34% 32 76.07 0.0
30 18:55 E 13 16.09 Fair CLR 32.5 13.8 35.3 31.2 32% 32 76.07 0.0
30 18:35 E 15 16.09 Fair CLR 33.4 13.3 30% 32 76.05 0.0
30 18:15 SE 17 16.09 Fair CLR 34 13.2 28% 33 76.05 0.0
30 17:55 SE 11 16.09 Fair CLR 34.6 13.2 27% 34 76.05 0.0
30 17:35 SE 13 16.09 Fair CLR 33.9 13.8 30% 33 76.02 0.0
30 17:15 SE 7 16.09 Fair CLR 33.5 13.1 29% 32 76 0.0
30 16:55 SW 6 16.09 Fair CLR 34.1 12.6 27% 33 76.02 0.0
30 16:35 NE 6 16.09 Fair CLR 34.4 12.5 26% 33 76.05 0.0
30 16:15 E 9 16.09 Fair CLR 34.8 12.3 26% 34 76.05 0.0
30 15:55 E 7 16.09 Fair CLR 35 12.6 26% 34 76.05 0.0
30 15:35 SW 7 16.09 Fair CLR 34.7 13 27% 34 76.05 0.0
30 15:15 E 6 16.09 Fair CLR 34.5 12.4 26% 33 76.07 0.0
30 14:55 E 6 16.09 Fair CLR 34.1 12 26% 33 76.07 0.0
30 14:35 W 7 16.09 Fair CLR 33 11.4 27% 32 76.07 0.0
30 14:15 NE 11 16.09 Fair CLR 33.1 11.2 26% 32 76.07 0.0
30 13:55 N 11 16.09 Fair CLR 32.4 11.5 28% 31 76.1 0.0
30 13:35 N 7 16.09 Fair CLR 32.3 11.8 28% 31 76.1 0.0
30 13:15 N 11 16.09 Fair CLR 32.5 12.1 29% 31 76.12 0.0
30 12:55 NW 17 16.09 Fair CLR 31 13.1 32.1 17.2 33% 30 76.12 0.0
30 12:35 N 20 G 26 16.09 Fair CLR 31.7 13.9 34% 31 76.12 0.0
30 12:15 NW 20 16.09 Fair CLR 31.4 14.3 35% 31 76.15 0.0
30 11:55 NW 19 16.09 Fair CLR 31.1 14 35% 30 76.15 0.0
30 11:35 N 20 16.09 Fair CLR 30.6 14.3 37% 30 76.15 0.0
30 11:15 NW 20 16.09 Fair CLR 28.1 14.1 42% 28 76.15 0.0
30 10:55 NW 17 16.09 Fair CLR 28.1 14.8 44% 28 76.2 0.0
30 10:35 NW 20 G 28 16.09 Partly Cloudy SCT110 26.3 15 50% 27 76.15 0.0
30 10:15 NW 15 16.09 Partly Cloudy SCT110 23.8 15.1 58% 76.15 0.0
30 09:55 NW 20 16.09 Partly Cloudy SCT090 23 15.5 63% 76.12 0.0
30 09:35 NW 19 16.09 Partly Cloudy SCT085 SCT110 22.5 15.5 65% 76.1 0.0
30 09:15 NW 17 16.09 Fair CLR 22.6 15.8 66% 76.1 0.0
30 08:55 W 17 16.09 Fair CLR 21.5 16 71% 76.1 0.0
30 08:35 W 15 16.09 Fair CLR 20.3 16.1 77% 76.07 0.0
30 08:15 W 15 16.09 Fair CLR 19.2 16.1 82% 76.07 0.0
30 07:55 NW 15 16.09 Fair CLR 18.6 16.2 86% 76.05 0.0
30 07:35 W 11 16.09 Fair CLR 17.7 16.2 91% 76.05 0.0
30 07:15 W 13 16.09 Fair CLR 17.6 16.2 92% 76.02 0.0
30 06:55 NW 11 16.09 Fair CLR 17.2 16.2 23.9 17.2 94% 76 0.0
30 06:35 W 11 16.09 Fair CLR 17.3 16.3 94% 76.02 0.0
30 06:15 W 13 16.09 Fair CLR 17.4 16.4 94% 76 0.0
30 05:55 W 9 16.09 Fair CLR 17.7 16.6 93% 76 0.0
30 05:35 W 11 16.09 Fair CLR 18.3 16.6 90% 76 0.0
30 05:15 NW 13 16.09 Fair CLR 18.3 16.6 90% 75.97 0.0
30 04:55 NW 13 16.09 Fair CLR 18.4 16.6 89% 75.97 0.0
30 04:35 NW 13 16.09 Fair CLR 18.4 16.6 89% 76 0.0
30 04:15 W 13 16.09 Fair CLR 18.7 16.7 88% 76.02 0.0
30 03:55 NW 15 16.09 Fair CLR 18.9 16.7 87% 76 0.0
30 03:35 NW 11 16.09 Fair CLR 19.3 16.7 85% 76.02 0.0
30 03:15 NW 13 16.09 Fair CLR 19.8 16.8 83% 76 0.0
30 02:55 NW 9 16.09 Fair CLR 20.2 16.2 78% 76 0.0
30 02:35 N 11 16.09 Fair CLR 21.3 16.1 72% 76 0.0
30 02:15 N 9 16.09 Fair CLR 21.8 16 70% 76.05 0.0
30 01:55 N 15 16.09 Fair CLR 22.2 15.9 68% 76.05 0.0
30 01:35 N 22 16.09 Fair CLR 22.4 16.1 68% 76.05 0.0
30 01:15 N 26 16.09 Fair CLR 23.2 15.9 64% 76.07 0.0
30 00:55 N 30 G 37 16.09 Fair CLR 23.9 15.5 34.1 23.9 59% 25 76.07 0.0
30 00:35 N 33 G 44 16.09 Fair and Breezy CLR 26 15.7 53% 27 76.05 0.0
30 00:15 W 20 G 44 16.09 Fair CLR 24.6 15.7 58% 26 76.05 0.0
29 23:55 SW 11 16.09 Fair CLR 25.9 15.6 53% 27 75.92 0.0
29 23:35 S 11 16.09 Fair CLR 26.4 15.6 52% 27 75.92 0.0
29 23:15 S 11 16.09 Fair CLR 27.2 15.4 49% 28 75.9 0.0
29 22:55 S 13 16.09 Fair CLR 27.6 15.4 47% 28 75.9 0.0
29 22:35 SW 13 16.09 Fair CLR 27 16 51% 27 75.92 0.0
29 22:15 S 7 16.09 Fair CLR 27.4 16.4 51% 28 75.9 0.0
29 21:35 E 11 16.09 Fair CLR 26.7 18 59% 28 75.9 0.0
29 21:15 E 13 16.09 Fair CLR 27.1 17.9 57% 28 75.87 0.0
29 20:55 E 15 16.09 Fair CLR 27.9 18.1 55% 29 75.87 0.0
29 20:35 E 13 16.09 Fair CLR 29.2 18 51% 30 75.87 0.0
29 20:15 E 13 16.09 Fair CLR 31.3 17.5 44% 32 75.87 0.0
29 19:55 E 15 16.09 Fair CLR 32.5 17.2 40% 33 75.87 0.0
29 19:35 E 13 16.09 Fair CLR 33 17 38% 33 75.84 0.0
29 19:15 E 13 16.09 Fair CLR 33.6 16.8 37% 34 75.87 0.0
29 18:55 E 15 16.09 Fair CLR 34.2 16 38 34.1 34% 34 75.87 0.0
29 18:35 E 15 16.09 Fair CLR 34.7 15.8 32% 35 75.87 0.0
29 18:15 E 17 16.09 Fair CLR 34.8 15.8 32% 35 75.9 0.0
29 17:55 E 19 16.09 Fair CLR 34.9 15.3 31% 35 75.9 0.0
29 17:35 SE 20 16.09 Fair CLR 36.8 16.7 30% 38 75.92 0.0
29 17:15 E 19 16.09 Fair CLR 36.2 14.8 28% 36 75.92 0.0
29 16:55 E 20 16.09 Fair CLR 35.9 15.9 30% 36 75.92 0.0
29 16:35 E 22 16.09 Fair CLR 36.8 16.7 30% 38 75.95 0.0
29 16:15 SE 24 16.09 Fair CLR 37.4 15.5 27% 38 75.97 0.0
29 15:55 E 22 16.09 Fair CLR 37.4 14.4 25% 37 76 0.0
29 15:35 E 17 16.09 Fair CLR 37.6 15.2 26% 38 76 0.0
29 15:15 SE 15 16.09 Fair CLR 37.5 15 26% 37 76.02 0.0
29 14:55 NE 13 16.09 Fair CLR 37.4 13.5 24% 37 76.02 0.0
29 14:35 E 15 16.09 Fair CLR 37.8 13.4 23% 37 76.02 0.0
29 14:15 SE 11 16.09 Fair CLR 37.1 13.9 25% 37 76.05 0.0
29 13:55 Calm 16.09 Fair CLR 36.5 12.8 24% 36 76.05 0.0
29 13:35 Calm 16.09 Fair CLR 37 13.2 24% 36 76.07 0.0
29 13:15 NE 7 16.09 Fair CLR 35.4 14.2 28% 35 76.07 0.0
29 12:55 N 6 16.09 Fair CLR 35 14.2 35.4 19.2 29% 34 76.1 0.0
29 12:35 Calm 16.09 Fair CLR 34.2 14.4 30% 34 76.12 0.0
29 11:15 SW 7 16.09 Fair CLR 31.1 15.8 40% 31 76.15 0.0
29 10:55 W 7 16.09 Fair CLR 30.1 16 43% 30 76.15 0.0
29 10:35 SW 11 16.09 Fair CLR 29 15.8 45% 29 76.12 0.0
29 10:15 SW 15 16.09 Fair CLR 28.1 16 48% 28 76.15 0.0
29 09:55 SW 20 16.09 Fair CLR 27.2 15.9 50% 28 76.15 0.0
29 09:35 SW 20 16.09 Fair CLR 26.5 15.7 52% 27 76.15 0.0
29 09:15 SW 20 16.09 Fair CLR 25.5 15.4 54% 26 76.15 0.0
29 08:55 SW 20 G 26 16.09 Fair CLR 24.7 15.4 56% 26 76.15 0.0
29 08:35 SW 13 16.09 Fair CLR 23 15.5 63% 76.15 0.0
29 08:15 SW 7 16.09 Fair CLR 21.6 15.2 67% 76.15 0.0
29 07:55 W 9 16.09 Fair CLR 20.1 14.9 72% 76.15 0.0
29 07:35 SW 11 16.09 Fair CLR 19.4 14.9 75% 76.12 0.0
29 07:15 SW 11 16.09 Fair CLR 19.5 14.4 73% 76.12 0.0
29 06:55 SW 11 16.09 Fair CLR 20.7 14.3 26.4 20.5 67% 76.12 0.0
29 06:35 SW 13 16.09 Fair CLR 21.7 14.2 63% 76.12 0.0
29 06:15 S 17 16.09 Fair CLR 23 14 57% 76.12 0.0
29 05:55 S 20 16.09 Fair CLR 23.6 14.1 55% 76.15 0.0
29 05:35 S 17 16.09 Fair CLR 23.9 14.4 55% 25 76.17 0.0
29 05:15 SW 11 16.09 Fair CLR 24.4 14.4 54% 26 76.2 0.0
29 04:55 S 15 16.09 Fair CLR 24.8 14.4 52% 26 76.2 0.0
29 04:35 S 15 16.09 Fair CLR 24.7 14.7 54% 26 76.2 0.0
29 04:15 S 24 G 30 16.09 Fair CLR 24.8 14.9 54% 26 76.17 0.0
29 03:55 S 26 16.09 Fair CLR 25 15 54% 26 76.17 0.0
29 03:35 S 26 16.09 Fair CLR 25.2 15 53% 26 76.23 0.0
29 03:15 S 17 16.09 Partly Cloudy SCT120 25.2 15 53% 26 76.25 0.0
29 02:55 S 19 16.09 Partly Cloudy SCT120 24.9 15.2 55% 26 76.28 0.0
29 02:35 S 15 16.09 Fair CLR 24.7 15.3 56% 26 76.33 0.0
29 02:15 S 9 16.09 Partly Cloudy SCT110 24.2 15.7 59% 25 76.33 0.0
29 01:55 SW 9 16.09 Partly Cloudy SCT110 24.7 15.6 57% 26 76.38 0.0
29 01:35 SW 19 16.09 Partly Cloudy SCT050 SCT065 SCT110 25.8 14.9 51% 26 76.35 0.0
29 01:15 S 20 G 30 16.09 Fair CLR 26.4 14.4 48% 27 76.35 0.0
29 00:55 S 20 16.09 Fair CLR 26.2 14.3 33.3 26 48% 27 76.33 0.0
29 00:35 S 19 16.09 Fair CLR 26.2 14.2 48% 27 76.33 0.0
29 00:15 S 22 G 33 16.09 Fair CLR 26.3 14.2 47% 27 76.3 0.0
28 23:55 S 22 16.09 Fair CLR 26.6 14.3 47% 27 76.3 0.0
28 23:35 S 26 16.09 Fair CLR 26.7 14.6 47% 27 76.3 0.0
28 23:15 S 26 G 35 16.09 Fair CLR 27.3 14.7 46% 27 76.28 0.0
28 22:55 S 24 G 39 16.09 Fair CLR 27.9 14.9 45% 28 76.28 0.0
28 22:35 S 26 16.09 Fair CLR 27.8 15.4 47% 28 76.28 0.0
28 22:15 S 26 16.09 Fair CLR 28.2 15.6 46% 28 76.25 0.0
28 21:55 S 26 16.09 Fair CLR 28.4 15.9 47% 29 76.25 0.0
28 21:35 S 24 16.09 Fair CLR 28.5 16.3 48% 29 76.23 0.0
28 21:15 S 26 16.09 Fair CLR 28.8 16.8 48% 29 76.23 0.0
28 20:55 S 26 G 37 16.09 Fair CLR 29.5 16.7 46% 30 76.2 0.0
28 20:35 S 24 G 35 16.09 Fair CLR 30 16.9 45% 30 76.2 0.0
28 20:15 S 24 16.09 Fair CLR 30.6 17 44% 31 76.2 0.0
28 19:55 SE 24 16.09 Fair CLR 31.7 16.7 41% 32 76.2 0.0
28 19:35 S 24 16.09 Fair CLR 32 15.9 38% 32 76.2 0.0
28 19:15 S 22 16.09 Fair CLR 32.7 15.9 36% 33 76.2 0.0
28 18:55 S 28 G 41 16.09 Fair CLR 32.5 15.8 35.7 32.1 37% 32 76.2 0.0
28 18:35 S 35 16.09 Fair and Breezy CLR 33.1 15.5 35% 33 76.23 0.0
28 18:15 S 33 G 44 16.09 Fair and Breezy CLR 34.4 15.7 33% 34 76.2 0.0
28 17:55 S 31 16.09 Fair CLR 34.5 15.7 32% 34 76.23 0.0
28 17:35 S 33 G 44 16.09 Fair and Breezy CLR 34.7 15.6 32% 35 76.23 0.0
28 17:15 S 30 G 41 16.09 Fair CLR 35.1 15.8 32% 35 76.23 0.0
28 16:55 S 30 G 43 16.09 Fair CLR 35.2 15.3 30% 35 76.25 0.0
28 16:35 S 35 G 44 16.09 Fair and Breezy CLR 35.2 15.6 31% 35 76.25 0.0
28 16:15 S 30 G 43 16.09 Fair CLR 35.4 16.2 32% 36 76.28 0.0
28 15:55 S 37 G 52 16.09 Fair and Breezy CLR 35.1 15.6 31% 35 76.3 0.0
28 15:35 S 33 G 44 16.09 Fair and Breezy CLR 34.8 16.1 33% 35 76.33 0.0
28 15:15 S 31 G 41 16.09 Fair CLR 34.7 16.3 33% 35 76.35 0.0
28 14:55 S 30 G 39 16.09 Fair CLR 34.7 16.4 34% 35 76.38 0.0
28 14:35 S 28 G 41 16.09 Fair CLR 33.9 15.8 34% 34 76.38 0.0
28 14:15 S 33 G 41 16.09 Fair and Breezy CLR 34.1 16.1 34% 34 76.38 0.0
28 13:55 S 26 G 41 16.09 Fair CLR 33.4 16 35% 33 76.4 0.0
28 13:35 S 26 G 37 16.09 Fair CLR 33.5 16.1 35% 34 76.43 0.0
28 13:15 S 26 G 37 16.09 Fair CLR 32.9 16.3 37% 33 76.45 0.0
28 12:55 SW 31 G 41 16.09 Fair CLR 32.1 16.4 32.5 17.6 39% 32 76.48 0.0
28 12:35 S 30 G 37 16.09 Fair CLR 31.6 16.4 40% 32 76.5 0.0
28 12:15 S 26 G 37 16.09 Fair CLR 31.3 16.5 41% 31 76.5 0.0
28 11:55 S 30 G 46 16.09 Fair CLR 30.4 16.5 43% 31 76.53 0.0
28 11:35 S 30 16.09 Fair CLR 29.7 16.5 45% 30 76.53 0.0
28 11:15 S 28 G 43 16.09 Fair CLR 28.5 16.4 48% 29 76.56 0.0
Date Time (cdt) Wind (kph) Vis. (km) Weather Sky Cond. Air Dwpt Max. Min. Relative Humidity Wind Chill (°C) Heat Index (°C) altimeter (cm) sea level (mb) 1 hr 3 hr 6 hr
6 hour
Temperature (ºC) Pressure Precipitation (cm)